Time;durP1;ratioP1;P1;durP2;ratioP2;P2;SDS_P1;SDS_P2;PMS_P1;PMS_P2;Temp;Humidity;BMP_temperature;BMP_pressure;BME280_temperature;BME280_humidity;BME280_pressure;Samples;Min_cycle;Max_cycle;Signal;HPM_P1;HPM_P2
2023/05/14 00:00:51;;;;;;;7.77;6.13;;;;;;;12.09;100.00;99250.69;4989518;28;20202;-78
2023/05/14 00:03:20;;;;;;;8.50;6.50;;;;;;;12.11;100.00;99248.78;4984518;28;20310;-79
2023/05/14 00:05:48;;;;;;;12.17;7.30;;;;;;;11.93;100.00;99250.88;4993866;28;20203;-78
2023/05/14 00:08:17;;;;;;;7.70;6.90;;;;;;;11.84;100.00;99253.31;4983596;28;20261;-78
2023/05/14 00:10:45;;;;;;;9.47;7.73;;;;;;;12.09;100.00;99247.19;4983026;28;20234;-78
2023/05/14 00:13:14;;;;;;;8.93;7.23;;;;;;;12.11;100.00;99245.25;4989210;28;20195;-77
2023/05/14 00:15:44;;;;;;;8.73;6.90;;;;;;;12.15;100.00;99247.59;4987368;28;20730;-78
2023/05/14 00:18:13;;;;;;;7.20;6.07;;;;;;;11.98;100.00;99240.81;4988271;28;20226;-78
2023/05/14 00:20:41;;;;;;;7.10;6.40;;;;;;;11.73;100.00;99249.53;4983661;28;20194;-78
2023/05/14 00:23:11;;;;;;;7.73;5.83;;;;;;;11.73;100.00;99244.22;4991060;28;20206;-78
2023/05/14 00:25:39;;;;;;;7.50;6.23;;;;;;;11.83;100.00;99235.69;4993494;28;20690;-77
2023/05/14 00:28:09;;;;;;;6.07;5.47;;;;;;;11.81;100.00;99237.59;4992624;28;20203;-78
2023/05/14 00:30:40;;;;;;;5.87;5.30;;;;;;;11.81;100.00;99246.41;4988777;28;20203;-77
2023/05/14 00:33:13;;;;;;;6.80;5.47;;;;;;;11.60;100.00;99231.91;4991141;28;20214;-78
2023/05/14 00:35:41;;;;;;;6.60;5.70;;;;;;;11.52;100.00;99226.25;4988508;28;20202;-78
2023/05/14 00:38:15;;;;;;;6.80;5.10;;;;;;;11.42;100.00;99224.22;4986916;28;20230;-78
2023/05/14 00:40:48;;;;;;;5.90;5.40;;;;;;;11.37;100.00;99226.31;4991173;28;20191;-78
2023/05/14 00:43:18;;;;;;;9.70;5.83;;;;;;;11.58;100.00;99223.19;4989395;28;20203;-78
2023/05/14 00:45:50;;;;;;;6.77;5.33;;;;;;;11.45;100.00;99224.00;4988278;28;20195;-78
2023/05/14 00:48:20;;;;;;;8.10;5.77;;;;;;;11.55;100.00;99215.44;4982065;28;20591;-78
2023/05/14 00:50:50;;;;;;;9.67;6.00;;;;;;;11.51;100.00;99211.31;4985231;28;20270;-78
2023/05/14 00:53:19;;;;;;;7.40;5.23;;;;;;;11.37;100.00;99215.69;4990814;28;20195;-78
2023/05/14 00:55:50;;;;;;;8.97;6.63;;;;;;;11.35;100.00;99214.97;4987607;28;20199;-78
2023/05/14 00:58:20;;;;;;;6.60;5.97;;;;;;;11.46;100.00;99207.13;4987719;28;20257;-78
2023/05/14 01:00:48;;;;;;;7.13;6.00;;;;;;;11.48;100.00;99209.69;4985804;28;20195;-78
2023/05/14 01:03:16;;;;;;;10.27;7.00;;;;;;;11.31;100.00;99208.16;4985764;28;20226;-77
2023/05/14 01:05:59;;;;;;;7.63;6.37;;;;;;;11.42;100.00;99207.47;4986352;28;20218;-78
2023/05/14 01:08:46;;;;;;;8.87;6.60;;;;;;;11.31;100.00;99213.47;4988707;28;20283;-78
2023/05/14 01:11:21;;;;;;;6.60;5.73;;;;;;;11.31;100.00;99207.31;4986884;28;20198;-78
2023/05/14 01:13:58;;;;;;;7.23;5.77;;;;;;;11.26;100.00;99206.75;4989858;28;20195;-78
2023/05/14 01:16:28;;;;;;;8.27;5.90;;;;;;;11.39;100.00;99215.63;4992954;28;20207;-78
2023/05/14 01:19:00;;;;;;;6.80;6.13;;;;;;;11.44;100.00;99214.34;4983883;28;20215;-78
2023/05/14 01:21:40;;;;;;;10.33;6.30;;;;;;;11.41;100.00;99211.91;4987694;28;20266;-78
2023/05/14 01:24:10;;;;;;;6.43;5.43;;;;;;;11.23;100.00;99206.97;4993538;28;20227;-78
2023/05/14 01:26:45;;;;;;;6.50;5.90;;;;;;;11.27;100.00;99203.16;4960418;28;20218;-78
2023/05/14 01:29:23;;;;;;;7.20;6.20;;;;;;;11.26;100.00;99199.66;4990094;28;20214;-78
2023/05/14 01:31:58;;;;;;;9.20;6.13;;;;;;;11.39;100.00;99207.66;4989120;28;20225;-78
2023/05/14 01:34:33;;;;;;;6.63;5.50;;;;;;;11.40;100.00;99204.06;4952053;29;20227;-78
2023/05/14 01:37:08;;;;;;;11.70;6.00;;;;;;;11.27;100.00;99205.81;4943331;29;20204;-78
2023/05/14 01:39:43;;;;;;;10.33;5.77;;;;;;;11.22;100.00;99202.63;4945275;29;20203;-78
2023/05/14 01:42:18;;;;;;;9.93;5.87;;;;;;;11.08;100.00;99201.72;4949142;29;20564;-78
2023/05/14 01:44:46;;;;;;;6.43;5.83;;;;;;;11.20;100.00;99202.72;4950229;29;20204;-78
2023/05/14 01:47:14;;;;;;;6.37;5.57;;;;;;;11.18;100.00;99200.16;4940021;29;20205;-78
2023/05/14 01:49:44;;;;;;;6.07;5.50;;;;;;;11.20;100.00;99205.38;4950343;29;20211;-78
2023/05/14 01:52:14;;;;;;;8.47;6.40;;;;;;;11.06;100.00;99205.41;4965358;28;20199;-78
2023/05/14 01:54:50;;;;;;;6.27;5.30;;;;;;;11.20;100.00;99199.22;4990582;28;20187;-78
2023/05/14 01:57:18;;;;;;;8.23;5.80;;;;;;;11.17;100.00;99202.91;4993422;28;20220;-77
2023/05/14 01:59:49;;;;;;;6.50;5.90;;;;;;;11.05;100.00;99201.91;4988797;28;20207;-78
2023/05/14 02:02:17;;;;;;;6.10;5.50;;;;;;;11.11;100.00;99204.19;4983801;28;20206;-78
2023/05/14 02:04:46;;;;;;;10.27;6.13;;;;;;;11.16;100.00;99195.91;4986229;28;20230;-78
2023/05/14 02:07:16;;;;;;;6.33;5.70;;;;;;;11.16;100.00;99198.56;4990531;28;20325;-78
2023/05/14 02:09:44;;;;;;;10.47;6.23;;;;;;;11.20;100.00;99197.44;4985111;28;20222;-78
2023/05/14 02:12:13;;;;;;;6.30;5.70;;;;;;;11.27;100.00;99189.91;4990335;28;20198;-78
2023/05/14 02:14:41;;;;;;;6.37;5.60;;;;;;;11.11;100.00;99196.22;4988769;28;20257;-78
2023/05/14 02:17:10;;;;;;;6.13;5.47;;;;;;;11.21;100.00;99185.88;4993511;28;20397;-78
2023/05/14 02:19:38;;;;;;;7.00;5.77;;;;;;;11.18;100.00;99189.56;4996807;28;20215;-78
2023/05/14 02:22:07;;;;;;;6.57;5.60;;;;;;;11.03;100.00;99185.28;4920527;29;20202;-78
2023/05/14 02:24:37;;;;;;;7.30;5.20;;;;;;;10.99;100.00;99183.75;4898020;29;20213;-77
2023/05/14 02:27:11;;;;;;;8.27;5.50;;;;;;;11.10;100.00;99188.38;4893171;29;20689;-78
2023/05/14 02:29:40;;;;;;;5.93;5.27;;;;;;;11.11;100.00;99190.94;4901593;29;20225;-78
2023/05/14 02:32:08;;;;;;;6.80;5.53;;;;;;;11.00;100.00;99182.84;4900357;29;20617;-78
2023/05/14 02:34:37;;;;;;;6.20;5.60;;;;;;;11.03;100.00;99181.78;4895972;29;20654;-77
2023/05/14 02:37:06;;;;;;;7.53;6.07;;;;;;;11.01;100.00;99181.88;4898602;29;20253;-78
2023/05/14 02:39:34;;;;;;;7.53;5.80;;;;;;;11.01;100.00;99183.69;4915465;28;20304;-78
2023/05/14 02:42:05;;;;;;;10.07;5.73;;;;;;;11.05;100.00;99185.16;4975527;28;20198;-78
2023/05/14 02:44:33;;;;;;;9.50;6.30;;;;;;;11.00;100.00;99174.88;4970568;28;20271;-77
2023/05/14 02:47:01;;;;;;;8.47;6.53;;;;;;;11.07;100.00;99177.97;4972773;28;20211;-78
2023/05/14 02:49:30;;;;;;;6.23;5.63;;;;;;;11.03;100.00;99173.81;4988151;28;20195;-78
2023/05/14 02:51:59;;;;;;;8.27;6.47;;;;;;;11.00;100.00;99166.94;4994227;28;20203;-78
2023/05/14 02:54:29;;;;;;;6.53;5.93;;;;;;;11.04;100.00;99173.72;4990902;28;20191;-78
2023/05/14 02:56:58;;;;;;;7.37;6.27;;;;;;;11.02;100.00;99169.47;4995132;28;20203;-77
2023/05/14 02:59:29;;;;;;;9.20;5.90;;;;;;;11.00;100.00;99172.25;4996761;28;20223;-78
2023/05/14 03:01:58;;;;;;;7.23;6.20;;;;;;;10.79;100.00;99168.31;4995149;28;20259;-78
2023/05/14 03:04:27;;;;;;;7.13;5.67;;;;;;;10.81;100.00;99172.56;4993967;28;20262;-78
2023/05/14 03:06:56;;;;;;;8.00;6.27;;;;;;;10.86;100.00;99172.28;4986968;28;20211;-78
2023/05/14 03:09:24;;;;;;;8.07;6.50;;;;;;;10.88;100.00;99175.66;4995379;28;20401;-77
2023/05/14 03:11:56;;;;;;;7.47;6.10;;;;;;;10.89;100.00;99177.34;4994898;28;20195;-78
2023/05/14 03:14:25;;;;;;;7.63;5.83;;;;;;;10.97;100.00;99182.16;4939100;29;20209;-77
2023/05/14 03:16:57;;;;;;;6.67;5.87;;;;;;;10.86;100.00;99174.91;4907002;29;20692;-78
2023/05/14 03:19:26;;;;;;;7.23;6.00;;;;;;;10.89;100.00;99180.00;4933010;29;20224;-77
2023/05/14 03:21:55;;;;;;;8.87;6.03;;;;;;;10.79;100.00;99181.56;4929492;29;20554;-77
2023/05/14 03:24:23;;;;;;;7.73;6.23;;;;;;;10.70;100.00;99183.00;4934992;29;20213;-77
2023/05/14 03:26:52;;;;;;;7.00;6.20;;;;;;;10.63;100.00;99187.00;4925716;29;20321;-78
2023/05/14 03:29:23;;;;;;;7.60;6.80;;;;;;;10.56;100.00;99183.03;4928235;29;20222;-78
2023/05/14 03:31:51;;;;;;;7.87;6.60;;;;;;;10.70;100.00;99179.50;4945190;28;20206;-78
2023/05/14 03:34:22;;;;;;;7.57;6.77;;;;;;;10.46;100.00;99187.22;4992061;28;20207;-77
2023/05/14 03:36:51;;;;;;;8.93;6.93;;;;;;;10.49;100.00;99179.91;4991112;28;20248;-77
2023/05/14 03:39:20;;;;;;;8.03;7.20;;;;;;;10.47;100.00;99191.56;4989574;28;20226;-78
2023/05/14 03:41:50;;;;;;;7.73;7.03;;;;;;;10.37;100.00;99185.16;4983130;28;20257;-78
2023/05/14 03:44:19;;;;;;;8.13;7.37;;;;;;;10.26;100.00;99184.03;4990014;28;20214;-78
2023/05/14 03:46:48;;;;;;;9.73;7.60;;;;;;;10.19;100.00;99182.66;4989259;28;20203;-77
2023/05/14 03:49:16;;;;;;;7.73;7.03;;;;;;;10.24;100.00;99185.06;4986562;28;20198;-78
2023/05/14 03:51:48;;;;;;;8.40;7.20;;;;;;;10.18;100.00;99186.25;4987025;28;20203;-77
2023/05/14 03:54:17;;;;;;;8.37;7.47;;;;;;;10.13;100.00;99183.03;4991375;28;20677;-77
2023/05/14 03:56:45;;;;;;;8.50;7.70;;;;;;;10.24;100.00;99182.44;4989415;28;20202;-78
2023/05/14 03:59:14;;;;;;;8.53;7.73;;;;;;;10.33;100.00;99184.50;4995386;28;20271;-77
2023/05/14 04:01:44;;;;;;;9.10;7.47;;;;;;;10.28;100.00;99186.56;4986739;28;20716;-77
2023/05/14 04:04:13;;;;;;;9.10;8.00;;;;;;;10.27;100.00;99183.06;4995192;28;20301;-77
2023/05/14 04:06:41;;;;;;;10.10;8.43;;;;;;;10.31;100.00;99184.56;4991075;28;20203;-77
2023/05/14 04:09:11;;;;;;;9.27;8.00;;;;;;;10.44;100.00;99179.38;4986952;28;20203;-77
2023/05/14 04:11:41;;;;;;;10.27;7.50;;;;;;;10.50;100.00;99175.47;4989148;28;20199;-78
2023/05/14 04:14:10;;;;;;;8.50;7.70;;;;;;;10.47;100.00;99179.16;4992860;28;20195;-78
2023/05/14 04:16:39;;;;;;;9.13;7.70;;;;;;;10.49;100.00;99181.72;4962329;28;20191;-77
2023/05/14 04:19:08;;;;;;;8.67;7.70;;;;;;;10.44;100.00;99181.19;4988438;28;20285;-78
2023/05/14 04:21:38;;;;;;;8.60;7.70;;;;;;;10.59;100.00;99183.69;4988934;28;20214;-77
2023/05/14 04:24:09;;;;;;;8.50;7.70;;;;;;;10.65;100.00;99190.41;4989753;28;20203;-77
2023/05/14 04:26:39;;;;;;;11.03;7.90;;;;;;;10.67;100.00;99192.94;4989965;28;20191;-77
2023/05/14 04:29:08;;;;;;;8.43;7.53;;;;;;;10.76;100.00;99187.06;4984524;28;20249;-78
2023/05/14 04:31:36;;;;;;;10.47;7.20;;;;;;;10.74;100.00;99189.81;4982438;28;20198;-78
2023/05/14 04:34:07;;;;;;;8.97;7.63;;;;;;;10.79;100.00;99184.19;4994577;28;20290;-78
2023/05/14 04:36:35;;;;;;;8.77;7.47;;;;;;;10.79;100.00;99194.81;4986873;28;20258;-78
2023/05/14 04:39:04;;;;;;;9.50;7.03;;;;;;;10.78;100.00;99191.31;4989045;28;20684;-78
2023/05/14 04:41:33;;;;;;;8.37;7.57;;;;;;;10.80;100.00;99193.84;4989603;28;20246;-78
2023/05/14 04:44:03;;;;;;;11.03;7.37;;;;;;;10.82;100.00;99197.28;4985258;28;20211;-78
2023/05/14 04:46:31;;;;;;;7.50;6.80;;;;;;;10.96;100.00;99206.97;4986762;28;20237;-78
2023/05/14 04:49:00;;;;;;;9.47;7.23;;;;;;;11.03;100.00;99193.22;4989078;28;20658;-78
2023/05/14 04:51:28;;;;;;;10.40;6.63;;;;;;;11.10;100.00;99194.53;4994716;28;20192;-78
2023/05/14 04:53:56;;;;;;;7.37;6.77;;;;;;;11.21;100.00;99192.97;4985186;28;20206;-78
2023/05/14 04:56:28;;;;;;;8.30;6.83;;;;;;;11.21;100.00;99191.16;4982546;28;20195;-78
2023/05/14 04:58:56;;;;;;;11.07;7.17;;;;;;;11.35;100.00;99190.25;4983292;28;20211;-77
2023/05/14 05:01:27;;;;;;;9.20;7.93;;;;;;;11.25;100.00;99197.09;4990224;28;20501;-78
2023/05/14 05:03:56;;;;;;;11.20;7.30;;;;;;;11.34;100.00;99199.16;4982780;28;20246;-78
2023/05/14 05:06:26;;;;;;;7.60;6.57;;;;;;;11.40;100.00;99199.59;4989400;28;20303;-78
2023/05/14 05:08:59;;;;;;;11.30;7.23;;;;;;;11.36;100.00;99197.25;4987200;28;20210;-78
2023/05/14 05:11:29;;;;;;;10.00;7.33;;;;;;;11.48;100.00;99199.06;4988716;28;20195;-78
2023/05/14 05:13:57;;;;;;;8.77;7.07;;;;;;;11.32;100.00;99193.97;4990966;28;20207;-78
2023/05/14 05:16:27;;;;;;;7.80;7.00;;;;;;;11.33;100.00;99197.47;4987282;28;20207;-78
2023/05/14 05:18:55;;;;;;;8.87;7.47;;;;;;;11.37;100.00;99202.44;4988290;28;20282;-78
2023/05/14 05:21:25;;;;;;;9.00;7.73;;;;;;;11.30;100.00;99197.66;4990466;28;20309;-78
2023/05/14 05:23:54;;;;;;;8.70;7.40;;;;;;;11.49;100.00;99208.75;4986312;28;20665;-78
2023/05/14 05:26:23;;;;;;;8.77;7.47;;;;;;;11.50;100.00;99199.84;4986535;28;20199;-77
2023/05/14 05:28:54;;;;;;;9.43;7.80;;;;;;;11.58;100.00;99201.94;4988358;28;20198;-78
2023/05/14 05:31:22;;;;;;;8.53;7.10;;;;;;;11.59;100.00;99198.38;4985367;28;20207;-78
2023/05/14 05:33:53;;;;;;;8.70;7.67;;;;;;;11.66;100.00;99202.28;4987023;28;20199;-78
2023/05/14 05:36:21;;;;;;;9.77;7.57;;;;;;;11.68;100.00;99201.25;4988450;28;20211;-78
2023/05/14 05:38:50;;;;;;;8.90;8.00;;;;;;;11.71;100.00;99194.88;4993631;28;20198;-78
2023/05/14 05:41:19;;;;;;;9.27;8.13;;;;;;;11.54;100.00;99200.47;4987491;28;20228;-78
2023/05/14 05:43:47;;;;;;;9.33;8.30;;;;;;;11.54;100.00;99200.47;4987259;28;20191;-78
2023/05/14 05:46:16;;;;;;;12.07;10.37;;;;;;;11.67;100.00;99202.19;4985963;28;20198;-79
2023/05/14 05:48:46;;;;;;;81.00;34.43;;;;;;;11.75;100.00;99197.22;4985684;28;20642;-78
2023/05/14 05:51:16;;;;;;;35.63;19.10;;;;;;;11.85;100.00;99201.91;4988101;28;20655;-79
2023/05/14 05:53:45;;;;;;;15.60;11.00;;;;;;;11.85;100.00;99199.28;4990612;28;20198;-78
2023/05/14 05:56:13;;;;;;;9.87;8.30;;;;;;;12.09;100.00;99194.94;4990037;28;20203;-78
2023/05/14 05:58:41;;;;;;;10.80;8.10;;;;;;;12.15;100.00;99198.94;4989848;28;20254;-78
2023/05/14 06:01:12;;;;;;;8.27;7.57;;;;;;;12.35;100.00;99201.06;4937523;28;20225;-78
2023/05/14 06:03:41;;;;;;;9.70;7.40;;;;;;;12.54;100.00;99204.09;4986696;28;20227;-78
2023/05/14 06:06:09;;;;;;;8.63;7.80;;;;;;;12.68;100.00;99203.13;4984593;28;20242;-78
2023/05/14 06:08:39;;;;;;;8.27;7.47;;;;;;;12.86;100.00;99204.47;4990442;28;20359;-78
2023/05/14 06:11:08;;;;;;;8.30;7.50;;;;;;;12.96;100.00;99201.97;4987419;28;20202;-78
2023/05/14 06:13:36;;;;;;;9.60;8.07;;;;;;;13.23;100.00;99206.28;4984218;28;20199;-78
2023/05/14 06:16:05;;;;;;;9.00;7.83;;;;;;;13.22;100.00;99199.22;4987599;28;20203;-79
2023/05/14 06:18:34;;;;;;;8.50;7.70;;;;;;;13.25;100.00;99210.50;4990210;28;20191;-78
2023/05/14 06:21:02;;;;;;;8.57;7.73;;;;;;;13.32;100.00;99206.44;4987065;28;20218;-78
2023/05/14 06:23:31;;;;;;;10.37;7.90;;;;;;;13.22;100.00;99204.56;4989767;28;20191;-78
2023/05/14 06:26:01;;;;;;;8.07;7.17;;;;;;;13.13;100.00;99208.72;4983950;28;20195;-78
2023/05/14 06:28:30;;;;;;;8.40;7.60;;;;;;;13.16;100.00;99200.50;4990354;28;20191;-78
2023/05/14 06:30:58;;;;;;;8.80;7.50;;;;;;;13.29;100.00;99211.13;4987681;28;20206;-78
2023/05/14 06:33:29;;;;;;;9.17;7.63;;;;;;;13.47;100.00;99204.44;4986491;28;20202;-78
2023/05/14 06:35:58;;;;;;;8.57;7.67;;;;;;;13.55;100.00;99204.69;4990112;28;20203;-78
2023/05/14 06:38:26;;;;;;;8.67;7.23;;;;;;;13.52;100.00;99199.63;4986293;28;20206;-78
2023/05/14 06:40:55;;;;;;;6.93;6.23;;;;;;;13.68;100.00;99200.13;4992921;28;20223;-78
2023/05/14 06:43:24;;;;;;;6.47;5.70;;;;;;;13.91;100.00;99193.06;4990407;28;20195;-78
2023/05/14 06:45:53;;;;;;;6.13;5.53;;;;;;;14.12;100.00;99190.53;4985642;28;20199;-78
2023/05/14 06:48:21;;;;;;;6.07;5.47;;;;;;;14.22;100.00;99186.19;4989053;28;20708;-78
2023/05/14 06:50:50;;;;;;;5.90;5.13;;;;;;;14.35;100.00;99188.72;4985422;28;20195;-78
2023/05/14 06:53:19;;;;;;;6.77;5.13;;;;;;;14.05;100.00;99176.00;4992938;28;20207;-78
2023/05/14 06:55:47;;;;;;;6.33;5.10;;;;;;;14.33;100.00;99186.19;4982845;28;20262;-78
2023/05/14 06:58:16;;;;;;;5.43;4.93;;;;;;;14.48;100.00;99175.34;4930321;29;20212;-79
2023/05/14 07:00:45;;;;;;;5.63;4.93;;;;;;;14.89;100.00;99180.84;4924322;29;20225;-78
2023/05/14 07:03:15;;;;;;;5.90;4.73;;;;;;;14.95;100.00;99181.28;4929195;29;20213;-79
2023/05/14 07:05:45;;;;;;;7.27;5.27;;;;;;;14.76;100.00;99173.94;4930490;29;20251;-78
2023/05/14 07:08:15;;;;;;;6.40;5.00;;;;;;;14.97;100.00;99174.03;4931795;29;20197;-79
2023/05/14 07:10:43;;;;;;;5.47;4.73;;;;;;;15.08;100.00;99174.00;4936307;29;20288;-78
2023/05/14 07:13:12;;;;;;;5.50;4.87;;;;;;;14.93;100.00;99173.41;4928378;29;20201;-78
2023/05/14 07:15:43;;;;;;;5.20;4.70;;;;;;;14.87;100.00;99176.59;4942468;28;20192;-79
2023/05/14 07:18:12;;;;;;;5.80;5.30;;;;;;;15.04;100.00;99168.03;4985622;28;20712;-79
2023/05/14 07:20:41;;;;;;;5.60;5.07;;;;;;;15.19;100.00;99163.28;4991659;28;20219;-79
2023/05/14 07:23:09;;;;;;;5.67;4.67;;;;;;;15.43;100.00;99157.69;4987033;28;20222;-78
2023/05/14 07:25:37;;;;;;;5.27;4.40;;;;;;;15.54;100.00;99165.69;4987659;28;20202;-79
2023/05/14 07:28:06;;;;;;;5.10;4.60;;;;;;;15.73;100.00;99147.16;4987319;28;20211;-78
2023/05/14 07:30:34;;;;;;;7.00;5.00;;;;;;;15.97;100.00;99154.03;4989882;28;20238;-79
2023/05/14 07:33:02;;;;;;;5.00;4.60;;;;;;;16.25;100.00;99161.34;4991361;28;20199;-79
2023/05/14 07:35:33;;;;;;;4.87;4.40;;;;;;;16.13;100.00;99145.53;4990640;28;20282;-79
2023/05/14 07:38:02;;;;;;;4.93;4.53;;;;;;;16.38;100.00;99146.88;4989808;28;20198;-79
2023/05/14 07:40:30;;;;;;;4.40;4.00;;;;;;;16.21;100.00;99141.22;4987268;28;20254;-79
2023/05/14 07:42:58;;;;;;;4.17;3.50;;;;;;;16.31;100.00;99135.91;4981532;28;20203;-79
2023/05/14 07:45:26;;;;;;;3.90;3.60;;;;;;;16.42;100.00;99143.81;4993129;28;20200;-79
2023/05/14 07:47:57;;;;;;;5.60;3.50;;;;;;;16.40;100.00;99135.06;4989078;28;20203;-79
2023/05/14 07:50:26;;;;;;;4.17;3.77;;;;;;;16.38;100.00;99136.19;4992130;28;20202;-79
2023/05/14 07:52:56;;;;;;;3.90;3.50;;;;;;;16.55;100.00;99128.38;4986246;28;20195;-79
2023/05/14 07:55:24;;;;;;;3.40;2.70;;;;;;;16.68;100.00;99124.59;4988527;28;20227;-79
2023/05/14 07:57:52;;;;;;;4.10;3.30;;;;;;;16.96;100.00;99120.31;4988148;28;20199;-79
2023/05/14 08:00:21;;;;;;;3.47;3.17;;;;;;;16.91;100.00;99128.75;4906931;29;20250;-79
2023/05/14 08:02:50;;;;;;;4.20;3.00;;;;;;;17.19;100.00;99126.25;4858764;29;20260;-79
2023/05/14 08:05:19;;;;;;;4.53;2.77;;;;;;;17.30;100.00;99118.91;4853827;29;20223;-79
2023/05/14 08:07:50;;;;;;;3.43;3.00;;;;;;;17.52;100.00;99112.41;4856035;29;20689;-79
2023/05/14 08:10:20;;;;;;;4.20;2.97;;;;;;;17.46;100.00;99113.81;4851571;29;20256;-79
2023/05/14 08:12:49;;;;;;;3.40;3.00;;;;;;;17.54;100.00;99109.56;4853151;29;20276;-79
2023/05/14 08:15:17;;;;;;;4.57;2.90;;;;;;;17.25;100.00;99106.94;4853496;29;20240;-79
2023/05/14 08:17:45;;;;;;;3.13;2.63;;;;;;;17.39;100.00;99107.34;4865808;29;20216;-79
2023/05/14 08:20:15;;;;;;;4.10;2.63;;;;;;;17.57;100.00;99098.59;4930498;29;20284;-79
2023/05/14 08:22:43;;;;;;;3.40;3.00;;;;;;;17.64;100.00;99100.53;4930622;29;20221;-79
2023/05/14 08:25:12;;;;;;;9.50;7.90;;;;;;;17.74;100.00;99096.03;4932718;29;20197;-79
2023/05/14 08:27:42;;;;;;;4.53;3.93;;;;;;;17.89;100.00;99101.78;4961708;28;20195;-79
2023/05/14 08:30:11;;;;;;;4.43;2.67;;;;;;;18.02;100.00;99094.25;4986029;28;20201;-79
2023/05/14 08:32:39;;;;;;;3.00;2.70;;;;;;;17.94;100.00;99093.28;4980848;28;20246;-79
2023/05/14 08:35:08;;;;;;;4.00;2.70;;;;;;;18.13;100.00;99087.84;4983927;28;20207;-79
2023/05/14 08:37:36;;;;;;;3.27;2.97;;;;;;;18.37;100.00;99090.00;4988693;28;20249;-79
2023/05/14 08:40:07;;;;;;;4.03;3.20;;;;;;;18.50;100.00;99090.47;4986286;28;20203;-79
2023/05/14 08:42:39;;;;;;;3.33;3.03;;;;;;;18.93;98.13;99097.03;4989415;28;20215;-79
2023/05/14 08:45:16;;;;;;;34.60;22.97;;;;;;;18.95;96.02;99095.03;4988165;28;20206;-79
2023/05/14 08:47:48;;;;;;;3.93;3.20;;;;;;;18.78;91.66;99090.47;4985392;28;20195;-78
2023/05/14 08:50:18;;;;;;;3.77;3.47;;;;;;;18.62;95.38;99091.09;4988676;28;20191;-79
2023/05/14 08:52:50;;;;;;;3.80;2.70;;;;;;;18.15;99.34;99088.56;4991532;28;20195;-78
2023/05/14 08:55:18;;;;;;;3.00;2.60;;;;;;;18.37;100.00;99087.31;4990501;28;20534;-79
2023/05/14 08:57:47;;;;;;;3.20;2.90;;;;;;;18.35;98.97;99086.63;4988182;28;20257;-79
2023/05/14 09:00:17;;;;;;;6.20;4.90;;;;;;;17.99;100.00;99082.97;4927549;29;20241;-79
2023/05/14 09:02:47;;;;;;;3.60;2.90;;;;;;;18.23;100.00;99079.75;4930567;29;20258;-79
2023/05/14 09:05:19;;;;;;;3.30;2.73;;;;;;;18.42;100.00;99078.81;4931729;29;20224;-80
2023/05/14 09:07:47;;;;;;;3.60;3.00;;;;;;;18.57;99.41;99080.84;4931700;29;20252;-79
2023/05/14 09:10:16;;;;;;;2.60;2.40;;;;;;;18.68;100.00;99082.50;4931927;29;20205;-79
2023/05/14 09:12:44;;;;;;;3.77;3.40;;;;;;;18.31;100.00;99074.50;4924594;29;20201;-79
2023/05/14 09:15:13;;;;;;;7.20;6.47;;;;;;;18.58;100.00;99076.31;4926739;29;20579;-79
2023/05/14 09:17:47;;;;;;;3.47;3.07;;;;;;;19.06;100.00;99076.00;4933586;28;20670;-79
2023/05/14 09:20:19;;;;;;;3.47;3.10;;;;;;;18.95;100.00;99072.72;4988066;28;20637;-79
2023/05/14 09:22:53;;;;;;;4.07;3.00;;;;;;;19.28;100.00;99068.44;4989173;28;20273;-79
2023/05/14 09:25:28;;;;;;;3.30;3.00;;;;;;;19.37;97.51;99071.03;4990217;28;20258;-79
2023/05/14 09:28:05;;;;;;;3.00;2.77;;;;;;;19.71;100.00;99063.09;4987587;28;20289;-79
2023/05/14 09:30:36;;;;;;;3.07;2.80;;;;;;;19.51;96.85;99063.44;4987268;28;20261;-79
2023/05/14 09:33:10;;;;;;;3.10;2.80;;;;;;;19.67;97.53;99066.25;4983037;28;20222;-79
2023/05/14 09:35:42;;;;;;;2.80;2.60;;;;;;;19.40;98.87;99064.53;4987115;28;20199;-79
2023/05/14 09:38:12;;;;;;;3.97;2.57;;;;;;;19.52;97.16;99062.44;4987887;28;20211;-79
2023/05/14 09:40:41;;;;;;;4.43;2.90;;;;;;;19.34;98.98;99062.47;4980787;28;20305;-79
2023/05/14 09:43:10;;;;;;;3.27;2.77;;;;;;;19.16;98.37;99062.50;4985078;28;20226;-79
2023/05/14 09:45:41;;;;;;;3.33;2.70;;;;;;;19.35;97.39;99065.00;4983740;28;20286;-79
2023/05/14 09:48:12;;;;;;;2.73;2.53;;;;;;;19.24;99.28;99064.41;4985717;28;20203;-79
2023/05/14 09:50:43;;;;;;;3.20;2.90;;;;;;;18.87;100.00;99058.22;4990264;28;20203;-79
2023/05/14 09:53:14;;;;;;;3.33;3.03;;;;;;;18.80;100.00;99056.28;4992825;28;20209;-79
2023/05/14 09:55:43;;;;;;;3.90;3.13;;;;;;;18.90;100.00;99054.34;4992715;28;20195;-80
2023/05/14 09:58:14;;;;;;;3.93;2.83;;;;;;;18.62;100.00;99053.53;4985073;28;20202;-79
2023/05/14 10:00:46;;;;;;;4.60;3.00;;;;;;;19.05;100.00;99046.63;4981723;28;20226;-79
2023/05/14 10:03:20;;;;;;;3.17;2.93;;;;;;;19.39;100.00;99046.72;4991409;28;20219;-79
2023/05/14 10:05:50;;;;;;;4.57;3.10;;;;;;;19.47;97.87;99040.56;4984300;28;20253;-80
2023/05/14 10:08:26;;;;;;;3.63;3.13;;;;;;;19.20;100.00;99036.16;4988699;28;20203;-79
2023/05/14 10:10:58;;;;;;;3.67;3.37;;;;;;;18.84;100.00;99038.88;4988347;28;20199;-79
2023/05/14 10:13:32;;;;;;;3.43;3.00;;;;;;;19.50;100.00;99030.34;4992814;28;20207;-79
2023/05/14 10:16:09;;;;;;;3.30;3.00;;;;;;;19.99;100.00;99031.50;4984000;28;20666;-79
2023/05/14 10:18:47;;;;;;;4.80;3.57;;;;;;;20.50;94.54;99029.69;4989665;28;20187;-79
2023/05/14 10:21:20;;;;;;;3.40;3.10;;;;;;;20.97;91.73;99026.38;4989850;28;20285;-79
2023/05/14 10:23:50;;;;;;;3.80;3.00;;;;;;;21.06;88.42;99030.75;4987434;28;20721;-79
2023/05/14 10:26:19;;;;;;;3.63;3.10;;;;;;;21.06;84.74;99028.06;4985482;28;20199;-79
2023/05/14 10:28:52;;;;;;;4.17;3.20;;;;;;;20.67;90.96;99030.56;4987773;28;20329;-79
2023/05/14 10:31:24;;;;;;;3.88;3.03;;;;;;;20.43;92.04;99023.25;4988526;28;20415;-79
2023/05/14 10:33:54;;;;;;;3.40;3.10;;;;;;;20.99;88.70;99018.13;4938378;28;20625;-79
2023/05/14 10:36:23;;;;;;;4.60;3.67;;;;;;;21.24;82.58;99025.22;4988476;28;20203;-80
2023/05/14 10:38:57;;;;;;;4.30;3.30;;;;;;;21.54;81.88;99017.44;4991318;28;20190;-79
2023/05/14 10:41:25;;;;;;;3.65;3.33;;;;;;;21.56;79.70;99010.03;4996657;28;20198;-79
2023/05/14 10:43:57;;;;;;;3.75;3.00;;;;;;;20.86;80.41;99016.78;4993243;28;20215;-78
2023/05/14 10:46:25;;;;;;;4.00;2.70;;;;;;;21.01;85.37;99005.34;4989801;28;20202;-79
2023/05/14 10:48:57;;;;;;;3.33;2.90;;;;;;;20.98;83.10;99003.81;4990409;28;20191;-80
2023/05/14 10:51:30;;;;;;;3.47;2.65;;;;;;;20.74;87.31;99001.94;4988339;28;20202;-79
2023/05/14 10:54:01;;;;;;;6.68;3.25;;;;;;;20.52;87.48;99006.13;4993241;28;20210;-79
2023/05/14 10:56:29;;;;;;;2.88;2.67;;;;;;;20.48;86.44;98999.41;4987005;28;20199;-80
2023/05/14 10:59:00;;;;;;;2.63;2.42;;;;;;;20.48;91.69;98998.56;4993290;28;20195;-79
2023/05/14 11:01:28;;;;;;;3.08;2.80;;;;;;;21.55;81.76;99002.97;4992922;28;20203;-79
2023/05/14 11:03:59;;;;;;;3.97;2.90;;;;;;;21.66;78.10;98989.94;4996659;28;20235;-79
2023/05/14 11:06:30;;;;;;;4.00;2.70;;;;;;;21.03;80.43;98982.59;4988948;28;20206;-79
2023/05/14 11:09:01;;;;;;;3.22;2.40;;;;;;;21.36;75.25;98990.69;4996200;28;20234;-80
2023/05/14 11:11:30;;;;;;;2.72;2.50;;;;;;;21.38;79.74;98985.97;4996420;28;20203;-79
2023/05/14 11:13:59;;;;;;;3.00;2.70;;;;;;;22.00;76.46;98983.41;4988513;28;20669;-79
2023/05/14 11:16:30;;;;;;;3.45;2.83;;;;;;;22.15;67.66;98989.78;4989194;28;20234;-79
2023/05/14 11:19:03;;;;;;;4.30;2.60;;;;;;;22.27;65.77;98985.66;4991353;28;20203;-79
2023/05/14 11:21:32;;;;;;;3.08;2.78;;;;;;;21.40;69.91;98979.38;4998170;28;20203;-80
2023/05/14 11:24:03;;;;;;;3.50;2.70;;;;;;;21.98;67.47;98972.78;4983169;28;20237;-79
2023/05/14 11:26:32;;;;;;;3.40;2.50;;;;;;;22.10;67.28;98967.03;4993482;28;20217;-79
2023/05/14 11:29:04;;;;;;;2.75;2.55;;;;;;;22.52;64.34;98967.47;4988103;28;20257;-79
2023/05/14 11:31:33;;;;;;;3.25;2.95;;;;;;;22.78;64.07;98966.28;4985731;28;20275;-79
2023/05/14 11:34:05;;;;;;;2.92;2.40;;;;;;;22.64;64.31;98969.75;4988946;28;20214;-79
2023/05/14 11:36:36;;;;;;;3.03;2.75;;;;;;;22.51;67.90;98964.97;4989756;28;20199;-79
2023/05/14 11:39:07;;;;;;;4.95;2.80;;;;;;;21.97;73.57;98962.19;4986322;28;20203;-80